Terminal Aerodrome Forecast
Issued by NWS Tampa Bay Area, FL

Home | Current Version | Previous Version | Text Only | Print | Product List | Glossary On
Versions: 1 2 3 4 5 6 7 8 9 10 11 12 13 14
847
FTUS42 KTBW 161741
TAFFMY
TAF
KFMY 161741Z 1618/1718 11010KT P6SM SCT030 BKN050
      TEMPO 1618/1621 BKN030
     FM170000 09005KT P6SM BKN040
     FM170300 08004KT P6SM SCT040
     FM170900 08004KT 5SM BR FEW005 SCT030
     FM171500 12010KT P6SM SCT035 BKN250=

USA.gov is the U.S. government's official web portal to all federal, state and local government web resources and services.